Weather observations for the past three days for
Clinton, MO
Imperial (Metric)
Date Time (cdt) Wind (mph) Vis. (mi.) Weather Sky Cond. Temperature (ºF) Relative Humidity Wind Chill (°F) Heat Index (°F) Pressure Precipitation (in)
Air Dwpt 6 hour altimeter (in) sea level (mb) 1 hr 3 hr 6 hr
Max. Min.
10 15:55 N 8 G 14 10.00 Fair CLR 66.2 37.4 35% 30.14 0.0
10 15:35 N 10 10.00 A Few Clouds FEW120 66.2 39.2 37% 30.16 0.0
10 15:15 N 8 10.00 Fair CLR 66.2 39.2 37% 30.16 0.0
10 14:55 N 10 10.00 A Few Clouds FEW100 64.4 37.4 37% 30.16 0.0
10 14:35 N 12 10.00 Fair CLR 66.2 39.2 37% 30.16 0.0
10 14:15 N 12 10.00 Fair CLR 66.2 39.2 37% 30.16 0.0
10 13:55 N 7 G 14 10.00 Fair CLR 66.2 37.4 35% 30.16 0.0
10 13:35 N 10 10.00 Fair CLR 66.2 37.4 35% 30.16 0.0
10 12:55 NE 9 10.00 A Few Clouds FEW090 FEW120 64.4 37.4 37% 30.16 0.0
10 12:35 NE 14 10.00 Partly Cloudy SCT090 SCT110 62.6 33.8 34% 30.16 0.0
10 12:15 N 16 10.00 Partly Cloudy SCT100 62.6 35.6 37% 30.16 0.0
10 11:55 NE 12 G 18 10.00 Partly Cloudy SCT100 64.4 35.6 34% 30.16 0.0
10 11:35 NE 12 G 18 10.00 Partly Cloudy SCT095 62.6 35.6 37% 30.14 0.0
10 11:15 NE 13 10.00 A Few Clouds FEW100 64.4 35.6 34% 30.14 0.0
10 10:55 NE 10 10.00 A Few Clouds FEW100 62.6 37.4 39% 30.14 0.0
10 10:35 NE 10 10.00 Fair CLR 60.8 35.6 39% 30.13 0.0
10 10:15 NE 8 10.00 Fair CLR 60.8 39.2 45% 30.14 0.0
10 09:55 N 12 10.00 Fair CLR 62.6 39.2 42% 30.14 0.0
10 09:35 NE 10 10.00 Fair CLR 60.8 39.2 45% 30.15 0.0
10 09:15 NE 13 10.00 Fair CLR 60.8 39.2 45% 30.15 0.0
10 08:55 NE 13 10.00 Fair CLR 60.8 39.2 45% 30.13 0.0
10 08:35 NE 10 10.00 Fair CLR 59 37.4 45% 30.12 0.0
10 07:55 NE 10 10.00 Fair CLR 59 39.2 48% 30.09 0.0
10 07:35 NE 10 10.00 Fair CLR 57.2 41 55% 30.08 0.0
10 07:15 N 14 10.00 A Few Clouds FEW100 FEW120 57.2 41 55% 30.08 0.0
10 06:55 NE 9 10.00 Mostly Cloudy BKN100 BKN120 57.2 41 55% 30.07 0.0
10 06:35 N 8 10.00 Overcast BKN100 OVC120 57.2 41 55% 30.06 0.0
10 06:15 N 9 10.00 Mostly Cloudy BKN095 57.2 41 55% 30.05 0.0
10 05:55 NE 7 10.00 Partly Cloudy SCT110 57.2 41 55% 30.04 0.0
10 05:35 NE 8 G 15 10.00 Partly Cloudy SCT110 57.2 41 55% 30.03 0.0
10 05:15 NE 10 10.00 Mostly Cloudy BKN110 59 42.8 55% 30.02 0.0
10 04:55 NE 10 10.00 Mostly Cloudy BKN110 59 44.6 59% 30.01 0.0
10 04:35 N 9 10.00 Partly Cloudy SCT110 59 48.2 68% 30.01 0.0
10 04:15 N 8 10.00 A Few Clouds FEW120 59 50 72% 29.99 0.0
10 03:55 N 7 10.00 Partly Cloudy SCT085 SCT110 60.8 51.8 72% 29.99 0.0
10 03:35 N 8 10.00 Overcast BKN090 OVC110 60.8 51.8 72% 29.98 0.0
10 03:15 Calm 10.00 Mostly Cloudy BKN090 BKN120 59 51.8 77% 29.97 0.0
10 02:55 NE 5 10.00 A Few Clouds FEW090 60.8 50 68% 29.96 0.0
10 02:35 NE 6 10.00 Fair CLR 62.6 50 64% 29.95 0.0
10 02:15 N 6 10.00 Partly Cloudy FEW085 SCT110 62.6 51.8 68% 29.96 0.0
10 01:55 Calm 10.00 Partly Cloudy SCT110 64.4 51.8 64% 29.94 0.0
10 01:35 NE 7 10.00 Mostly Cloudy SCT095 BKN110 64.4 51.8 64% 29.94 0.0
10 01:15 Calm 10.00 Overcast BKN100 OVC120 64.4 51.8 64% 29.95 0.0
10 00:55 NE 6 10.00 Overcast OVC110 64.4 50 60% 29.94 0.0
10 00:35 NE 6 G 13 10.00 Overcast OVC100 64.4 50 60% 29.93 0.0
10 00:15 NE 8 10.00 Overcast FEW060 SCT070 OVC100 62.6 53.6 73% 29.93 0.0
09 23:55 Calm 10.00 Unknown Precip FEW048 BKN075 OVC120 62.6 57.2 83% 29.93 0.0
09 23:35 Calm 10.00 Overcast FEW055 BKN095 OVC120 64.4 55.4 73% 29.92 0.0
09 23:15 Calm 10.00 Mostly Cloudy BKN100 BKN120 62.6 53.6 73% 29.92 0.0
09 22:55 Calm 10.00 Partly Cloudy SCT120 62.6 53.6 73% 29.9 0.0
09 22:15 Calm 10.00 Fair CLR 62.6 53.6 73% 29.88 0.0
09 21:55 Calm 10.00 Fair CLR 66.2 51.8 60% 29.87 0.0
09 21:35 Calm 10.00 Fair CLR 68 51.8 56% 29.86 0.0
09 21:15 N 8 10.00 A Few Clouds FEW100 69.8 50 50% 29.85 0.0
09 20:55 N 8 10.00 Mostly Cloudy BKN100 69.8 53.6 57% 29.84 0.0
09 20:35 N 10 G 20 10.00 Partly Cloudy SCT100 71.6 57.2 61% 29.82 0.0
09 20:15 Calm 10.00 Fair CLR 73.4 55.4 53% 29.79 0.0
09 19:55 Calm 10.00 Fair CLR 75.2 55.4 50% 78 29.78 0.0
09 19:35 Calm 10.00 Fair CLR 75.2 55.4 50% 78 29.78 0.0
09 19:15 Calm 10.00 Fair CLR 77 57.2 51% 79 29.78 0.0
09 18:55 Calm 10.00 Fair CLR 77 57.2 51% 79 29.78 0.0
09 18:35 Calm 10.00 Fair CLR 77 57.2 51% 79 29.78 0.0
09 18:15 Calm 10.00 Fair CLR 80.6 55.4 42% 81 29.78 0.0
09 17:55 Calm 10.00 Fair CLR 80.6 53.6 39% 80 29.78 0.0
09 17:35 SW 7 10.00 Fair CLR 82.4 51.8 35% 81 29.77 0.0
09 17:15 SW 7 10.00 Fair CLR 82.4 51.8 35% 81 29.78 0.0
09 16:55 W 8 10.00 Fair CLR 82.4 51.8 35% 81 29.77 0.0
09 16:35 W 6 G 14 10.00 Fair CLR 80.6 51.8 37% 80 29.78 0.0
09 16:15 SW 8 G 14 10.00 Fair CLR 82.4 50 32% 81 29.78 0.0
09 15:55 SW 9 10.00 Fair CLR 82.4 51.8 35% 81 29.79 0.0
09 15:35 SW 12 10.00 Fair CLR 82.4 53.6 37% 81 29.79 0.0
09 15:15 W 12 10.00 Fair CLR 82.4 53.6 37% 81 29.8 0.0
09 14:55 W 12 10.00 Fair CLR 80.6 55.4 42% 81 29.81 0.0
09 14:35 Vrbl 7 G 14 10.00 Fair CLR 80.6 55.4 42% 81 29.81 0.0
09 14:15 W 9 10.00 Fair CLR 80.6 55.4 42% 81 29.81 0.0
09 13:55 Vrbl 7 G 15 10.00 Fair CLR 78.8 55.4 45% 79 29.81 0.0
09 13:35 W 10 10.00 Fair CLR 78.8 55.4 45% 79 29.82 0.0
09 13:15 W 10 10.00 Fair CLR 78.8 55.4 45% 79 29.82 0.0
09 12:55 W 8 10.00 Fair CLR 77 55.4 47% 79 29.82 0.0
09 12:35 W 10 10.00 Fair CLR 77 55.4 47% 79 29.83 0.0
09 12:15 W 12 10.00 Fair CLR 75.2 55.4 50% 78 29.84 0.0
09 11:55 W 12 G 18 10.00 Fair CLR 75.2 57.2 54% 78 29.84 0.0
09 11:35 SW 8 10.00 Fair CLR 73.4 57.2 57% 29.84 0.0
09 11:15 SW 9 G 17 10.00 Fair CLR 71.6 57.2 61% 29.84 0.0
09 10:55 W 10 G 16 10.00 Fair CLR 69.8 57.2 64% 29.84 0.0
09 10:35 SW 10 9.00 Fair CLR 69.8 57.2 64% 29.84 0.0
09 10:15 SW 10 10.00 Fair CLR 68 57.2 69% 29.84 0.0
09 09:55 SW 7 10.00 Fair CLR 66.2 59 78% 29.84 0.0
09 09:35 SW 8 G 14 10.00 Fair CLR 64.4 59 83% 29.84 0.0
09 09:15 SW 8 10.00 Fair CLR 62.6 59 88% 29.84 0.0
09 08:55 W 9 10.00 Fair CLR 60.8 60.8 100% 29.83 0.0
09 08:35 SW 8 9.00 Fair CLR 59 59 100% 29.83 0.0
09 08:15 SW 8 9.00 Fair CLR 57.2 57.2 100% 29.82 0.0
09 07:55 SW 7 9.00 Fair CLR 57.2 57.2 100% 29.82 0.0
09 07:35 SW 6 9.00 Fair CLR 55.4 55.4 100% 29.81 0.0
09 07:15 SW 6 7.00 Fair CLR 55.4 55.4 100% 29.81 0.0
09 06:55 SW 5 6.00 Fog/Mist CLR 53.6 53.6 100% 29.8 0.0
09 06:35 Calm 0.25 Fog BKN002 51.8 51.8 100% 29.8 0.0
09 06:15 Calm 0.15 Fog OVC002 51.8 51.8 100% 29.8 0.0
09 05:55 Calm 0.25 Fog OVC002 51.8 51.8 100% 29.8 0.0
09 05:35 S 5 0.15 Fog OVC002 53.6 53.6 100% 29.8 0.0
09 05:15 Calm 0.15 Fog OVC002 53.6 53.6 100% 29.8 0.0
09 04:55 Calm 0.15 Fog OVC002 53.6 53.6 100% 29.8 0.0
09 04:35 SW 5 0.25 Fog OVC002 53.6 53.6 100% 29.8 0.0
09 04:15 SW 5 0.50 Fog/Mist OVC002 53.6 53.6 100% 29.81 0.0
09 03:55 SW 5 0.15 Fog OVC002 55.4 55.4 100% 29.81 0.0
09 03:35 SW 7 0.15 Fog OVC002 55.4 55.4 100% 29.8 0.0
09 02:55 SW 7 0.15 Fog OVC002 55.4 55.4 100% 29.8 0.0
09 02:35 SW 5 0.15 Fog OVC002 55.4 55.4 100% 29.79 0.0
09 02:15 SW 3 0.15 Fog OVC002 55.4 55.4 100% 29.79 0.0
09 01:55 Calm 0.15 Fog OVC002 55.4 55.4 100% 29.79 0.0
09 01:35 Calm 0.15 Fog OVC002 51.8 51.8 100% 29.8 0.0
09 01:15 Calm 0.15 Fog OVC002 53.6 53.6 100% 29.8 0.0
09 00:55 Calm 0.15 Fog OVC001 51.8 51.8 100% 29.8 0.0 0.01
09 00:35 Calm 0.15 Fog OVC002 51.8 51.8 100% 29.8 0.0
09 00:15 Calm 0.15 Fog OVC002 51.8 51.8 100% 29.81 0.0
08 23:55 Calm 0.15 Fog OVC002 50 50 100% 29.81 0.0
08 23:35 Calm 0.15 Fog VV000 50 50 100% 29.81 0.0
08 23:15 Calm 0.15 Fog VV000 51.8 51.8 100% 29.82 0.0
08 22:55 Calm 0.15 Fog VV000 51.8 51.8 100% 29.82 0.0
08 22:35 Calm 0.25 Fog BKN005 55.4 55.4 100% 29.82 0.0
08 22:15 Calm 0.25 Fog BKN005 53.6 53.6 100% 29.82 0.0
08 21:55 Calm 0.25 Fog VV002 55.4 55.4 100% 29.82 0.0
08 21:35 Calm 2.50 Fog/Mist CLR 57.2 57.2 100% 29.79 0.0
08 21:15 Calm 10.00 Fair CLR 57.2 57.2 100% 29.78 0.0
08 20:55 Calm 10.00 Fair CLR 59 59 100% 29.78 0.0
08 20:35 Calm 9.00 A Few Clouds FEW050 FEW055 59 59 100% 29.77 0.0
08 20:15 Calm 10.00 Mostly Cloudy BKN055 BKN085 59 59 100% 29.77 0.0
08 19:35 E 6 1.50 Thunderstorm Heavy Rain Fog/Mist SCT004 BKN029 OVC070 59 59 100% 29.76 0.0
08 19:15 E 8 10.00 Overcast BKN065 BKN075 OVC090 59 59 100% 29.75 0.0
08 18:55 NE 9 9.00 Thunderstorm OVC090 59 59 100% 29.76 0.0 0.17
08 18:35 N 17 6.00 Thunderstorm Light Rain Fog/Mist FEW005 SCT027 BKN055 60.8 59 94% 29.77 0.0
08 18:15 NW 25 G 32 4.00 Thunderstorm in Vicinity Rain Haze and Breezy FEW024 FEW042 OVC055 64.4 60.8 88% 29.78 0.0
08 17:55 Calm 10.00 Thunderstorm in Vicinity BKN060 BKN070 66.2 59 78% 29.72 0.0
08 17:15 S 6 10.00 Mostly Cloudy BKN065 69.8 59 69% 29.73 0.0
08 16:55 S 7 10.00 Partly Cloudy SCT065 SCT075 68 59 73% 29.75 0.0
08 16:35 S 6 10.00 Partly Cloudy SCT070 SCT100 68 59 73% 29.76 0.0
08 16:15 Calm 10.00 Partly Cloudy SCT100 66.2 59 78% 29.77 0.0
08 15:55 Calm 9.00 Unknown Precip FEW110 68 60.8 78% 29.77 0.0
08 15:35 Calm 4.00 Light Rain Haze FEW080 68 60.8 78% 29.79 0.0
08 15:15 Calm 9.00 Unknown Precip FEW085 SCT100 69.8 57.2 64% 29.8 0.0
08 14:55 Calm 10.00 A Few Clouds FEW100 69.8 55.4 60% 29.79 0.0
08 14:35 S 6 9.00 A Few Clouds FEW080 FEW090 69.8 55.4 60% 29.78 0.0
08 14:15 S 3 10.00 A Few Clouds FEW085 69.8 55.4 60% 29.8 0.0
08 13:55 SW 6 10.00 Partly Cloudy SCT090 69.8 55.4 60% 29.81 0.0
08 13:35 W 6 10.00 Partly Cloudy SCT090 69.8 55.4 60% 29.83 0.0
08 13:15 W 9 10.00 Partly Cloudy SCT090 69.8 53.6 57% 29.83 0.0
08 12:55 W 10 G 16 9.00 Fair CLR 69.8 55.4 60% 29.83 0.0
08 12:35 SW 9 10.00 Fair CLR 68 55.4 64% 29.83 0.0
08 12:15 SW 9 10.00 A Few Clouds FEW110 66.2 53.6 64% 29.84 0.0
08 11:55 SW 8 10.00 A Few Clouds FEW110 64.4 53.6 68% 29.85 0.0
08 11:35 S 9 10.00 Fair CLR 62.6 51.8 68% 29.85 0.0
08 11:15 S 9 10.00 Fair CLR 62.6 51.8 68% 29.85 0.0
08 10:55 S 9 G 16 10.00 Fair CLR 60.8 50 68% 29.85 0.0
08 10:35 S 12 10.00 Fair CLR 60.8 50 68% 29.86 0.0
08 10:15 S 12 G 18 10.00 Fair CLR 60.8 50 68% 29.86 0.0
08 09:55 S 13 10.00 Fair CLR 59 48.2 68% 29.87 0.0
08 09:35 SW 13 10.00 Fair CLR 59 48.2 68% 29.88 0.0
08 09:15 S 13 G 20 10.00 A Few Clouds FEW120 59 48.2 68% 29.87 0.0
08 08:55 SW 12 10.00 A Few Clouds FEW120 59 46.4 63% 29.89 0.0
08 08:15 S 6 G 12 10.00 Mostly Cloudy BKN120 57.2 46.4 67% 29.89 0.0
08 07:35 SW 8 G 14 10.00 A Few Clouds FEW120 57.2 46.4 67% 29.88 0.0
08 07:15 SW 8 10.00 A Few Clouds FEW120 57.2 46.4 67% 29.88 0.0
08 06:55 SW 5 10.00 A Few Clouds FEW120 55.4 46.4 72% 29.87 0.0
08 06:35 S 6 10.00 Fair CLR 55.4 44.6 67% 29.86 0.0
08 06:15 S 8 10.00 Partly Cloudy SCT120 57.2 44.6 63% 29.85 0.0
08 05:55 S 6 10.00 Mostly Cloudy BKN120 57.2 44.6 63% 29.85 0.0
08 05:35 S 7 10.00 Partly Cloudy SCT120 57.2 44.6 63% 29.84 0.0
08 05:15 S 8 10.00 A Few Clouds FEW110 57.2 44.6 63% 29.84 0.0
08 04:55 S 10 10.00 A Few Clouds FEW110 57.2 44.6 63% 29.85 0.0
08 04:35 S 8 G 14 10.00 Mostly Cloudy BKN120 57.2 44.6 63% 29.85 0.0
08 04:15 S 8 10.00 Partly Cloudy SCT120 57.2 44.6 63% 29.85 0.0
08 03:55 S 6 10.00 Fair CLR 55.4 44.6 67% 29.86 0.0
08 03:35 S 7 10.00 Fair CLR 55.4 44.6 67% 29.86 0.0
08 03:15 S 6 10.00 Fair CLR 55.4 44.6 67% 29.87 0.0
08 02:35 Calm 10.00 Fair CLR 51.8 44.6 77% 29.88 0.0
08 02:15 Calm 10.00 Fair CLR 53.6 44.6 72% 29.88 0.0
08 01:55 S 6 10.00 Fair CLR 53.6 44.6 72% 29.88 0.0
08 01:35 S 5 10.00 Fair CLR 55.4 44.6 67% 29.89 0.0
08 01:15 S 7 10.00 Fair CLR 55.4 44.6 67% 29.89 0.0
08 00:55 S 8 10.00 Fair CLR 55.4 44.6 67% 29.9 0.0
08 00:35 S 8 10.00 Fair CLR 57.2 44.6 63% 29.9 0.0
08 00:15 S 7 10.00 Fair CLR 57.2 44.6 63% 29.9 0.0
07 23:55 S 8 10.00 Fair CLR 57.2 44.6 63% 29.9 0.0
07 23:35 S 8 10.00 Fair CLR 59 44.6 59% 29.91 0.0
07 23:15 S 8 10.00 Fair CLR 59 44.6 59% 29.91 0.0
07 22:55 S 7 10.00 Fair CLR 59 44.6 59% 29.91 0.0
07 22:35 S 8 10.00 Fair CLR 59 44.6 59% 29.91 0.0
07 21:55 S 8 10.00 Fair CLR 59 44.6 59% 29.91 0.0
07 21:35 S 7 10.00 Fair CLR 59 46.4 63% 29.91 0.0
07 21:15 S 7 10.00 Fair CLR 59 46.4 63% 29.9 0.0
07 20:55 S 8 10.00 Fair CLR 59 44.6 59% 29.9 0.0
07 20:35 S 7 10.00 Fair CLR 59 46.4 63% 29.89 0.0
07 20:15 S 6 10.00 Fair CLR 60.8 44.6 55% 29.89 0.0
07 19:55 S 7 10.00 Fair CLR 62.6 44.6 52% 29.89 0.0
07 19:35 S 7 10.00 Fair CLR 64.4 44.6 49% 29.89 0.0
07 19:15 S 8 10.00 Fair CLR 66.2 44.6 46% 29.89 0.0
07 18:55 SW 12 10.00 Fair CLR 66.2 44.6 46% 29.89 0.0
07 18:35 SW 10 10.00 Fair CLR 66.2 44.6 46% 29.89 0.0
07 18:15 S 12 10.00 Fair CLR 68 44.6 43% 29.89 0.0
07 17:55 SW 13 10.00 Fair CLR 68 44.6 43% 29.9 0.0
07 17:35 SW 13 10.00 Fair CLR 68 44.6 43% 29.91 0.0
07 17:15 SW 10 10.00 Fair CLR 68 44.6 43% 29.91 0.0
07 16:55 S 13 G 20 10.00 Fair CLR 68 44.6 43% 29.91 0.0
07 16:35 SW 13 10.00 Fair CLR 68 44.6 43% 29.92 0.0
07 16:15 SW 15 10.00 A Few Clouds FEW060 68 42.8 40% 29.92 0.0
Date Time (cdt) Wind (mph) Vis. (mi.) Weather Sky Cond. Air Dwpt Max. Min. Relative Humidity Wind Chill (°F) Heat Index (°F) altimeter (in) sea level (mb) 1 hr 3 hr 6 hr
6 hour
Temperature (ºF) Pressure Precipitation (in)